Time;durP1;ratioP1;P1;durP2;ratioP2;P2;SDS_P1;SDS_P2;PMS_P1;PMS_P2;Temp;Humidity;BMP_temperature;BMP_pressure;BME280_temperature;BME280_humidity;BME280_pressure;Samples;Min_cycle;Max_cycle;Signal;HPM_P1;HPM_P2
2021/06/15 00:04:45;;;;;;;19.48;11.30;;;;;;;18.34;62.36;100655.19;10394844;28;20242;-75
2021/06/15 00:09:48;;;;;;;19.23;10.40;;;;;;;18.32;62.44;100652.66;10396115;28;20237;-76
2021/06/15 00:14:51;;;;;;;17.27;9.90;;;;;;;18.53;62.13;100663.00;10394080;28;20234;-75
2021/06/15 00:19:55;;;;;;;17.67;11.48;;;;;;;18.60;61.84;100662.34;10396592;28;20241;-75
2021/06/15 00:24:58;;;;;;;16.35;11.30;;;;;;;18.53;61.75;100667.59;10394029;28;20241;-75
2021/06/15 00:30:01;;;;;;;22.42;11.63;;;;;;;18.45;62.30;100662.16;10393888;28;20619;-75
2021/06/15 00:35:06;;;;;;;16.85;10.85;;;;;;;18.41;62.39;100671.69;10393478;28;20241;-75
2021/06/15 00:40:10;;;;;;;17.30;11.43;;;;;;;18.33;62.72;100669.81;10391750;28;20242;-75
2021/06/15 00:45:16;;;;;;;17.08;11.05;;;;;;;18.24;63.13;100671.69;10408081;28;20320;-75
2021/06/15 00:50:22;;;;;;;16.05;11.80;;;;;;;18.19;63.29;100670.47;10435138;28;20241;-75
2021/06/15 00:55:27;;;;;;;19.80;12.35;;;;;;;18.07;63.70;100678.06;10434488;28;20257;-76
2021/06/15 01:00:30;;;;;;;23.10;13.50;;;;;;;18.01;63.71;100684.19;10432983;28;20227;-75
2021/06/15 01:05:35;;;;;;;19.92;13.75;;;;;;;18.12;63.61;100679.28;10435940;28;20255;-75
2021/06/15 01:10:49;;;;;;;24.00;15.15;;;;;;;18.02;63.54;100684.03;10452971;28;20312;-75
2021/06/15 01:16:03;;;;;;;22.27;15.45;;;;;;;17.98;63.58;100679.94;10433839;28;20647;-75
2021/06/15 01:21:11;;;;;;;24.23;16.17;;;;;;;17.92;63.76;100678.69;10433941;28;20221;-75
2021/06/15 01:26:33;;;;;;;24.40;16.23;;;;;;;17.92;63.90;100684.13;10431659;28;20316;-74
2021/06/15 01:31:43;;;;;;;23.77;16.00;;;;;;;17.91;63.89;100684.31;10447936;28;20277;-75
2021/06/15 01:36:56;;;;;;;26.83;16.52;;;;;;;17.77;64.20;100693.94;10449199;28;20790;-75
2021/06/15 01:42:07;;;;;;;29.98;18.75;;;;;;;17.79;64.50;100693.75;10447620;28;20617;-74
2021/06/15 01:47:13;;;;;;;29.55;17.02;;;;;;;17.73;64.33;100694.44;10431489;28;20225;-75
2021/06/15 01:52:22;;;;;;;28.35;18.35;;;;;;;17.63;64.59;100687.25;10446838;28;20233;-75
2021/06/15 01:57:26;;;;;;;36.60;20.95;;;;;;;17.47;64.83;100681.75;10429137;28;20225;-75
2021/06/15 02:02:39;;;;;;;29.63;21.20;;;;;;;17.42;65.41;100690.38;10432628;28;20295;-75
2021/06/15 02:07:46;;;;;;;27.65;19.23;;;;;;;17.41;65.12;100694.09;10430864;28;20235;-75
2021/06/15 02:12:54;;;;;;;30.77;21.10;;;;;;;17.33;65.57;100698.63;10446166;28;20349;-75
2021/06/15 02:18:23;;;;;;;34.15;19.25;;;;;;;17.29;65.87;100694.56;10446990;28;20225;-75
2021/06/15 02:23:36;;;;;;;37.55;22.20;;;;;;;17.28;65.62;100704.56;10445395;28;20232;-75
2021/06/15 02:28:39;;;;;;;31.48;22.52;;;;;;;17.20;66.07;100715.38;10430533;28;20224;-75
2021/06/15 02:33:48;;;;;;;31.80;21.60;;;;;;;17.16;66.30;100719.41;10446065;28;20233;-75
2021/06/15 02:38:56;;;;;;;34.63;22.67;;;;;;;17.02;66.27;100721.63;10435596;28;20233;-75
2021/06/15 02:44:01;;;;;;;39.63;23.52;;;;;;;16.94;66.65;100718.03;10439742;28;20822;-75
2021/06/15 02:49:13;;;;;;;36.08;22.55;;;;;;;16.97;66.42;100721.25;10455618;28;21378;-75
2021/06/15 02:54:22;;;;;;;32.05;21.50;;;;;;;17.03;66.27;100736.94;10454881;28;20285;-75
2021/06/15 02:59:26;;;;;;;32.60;21.30;;;;;;;16.95;66.01;100728.72;10453582;28;20730;-75
2021/06/15 03:04:30;;;;;;;33.53;20.70;;;;;;;16.83;66.43;100731.84;10437677;28;20605;-75
2021/06/15 03:09:35;;;;;;;28.73;18.40;;;;;;;16.68;66.55;100745.97;10437245;28;20240;-74
2021/06/15 03:14:43;;;;;;;33.97;18.15;;;;;;;16.58;66.63;100743.31;10451946;28;20291;-75
2021/06/15 03:19:55;;;;;;;30.77;17.80;;;;;;;16.50;66.47;100759.50;10436252;28;20737;-75
2021/06/15 03:25:02;;;;;;;24.13;15.73;;;;;;;16.54;66.33;100762.78;10436661;28;20240;-75
2021/06/15 03:30:09;;;;;;;21.88;14.52;;;;;;;16.51;66.29;100769.38;10437008;28;20235;-74
2021/06/15 03:35:18;;;;;;;23.65;14.88;;;;;;;16.43;66.53;100769.28;10436002;28;20965;-76
2021/06/15 03:40:22;;;;;;;23.27;14.38;;;;;;;16.44;66.11;100764.69;10454446;28;20363;-75
2021/06/15 03:45:27;;;;;;;21.50;14.40;;;;;;;16.50;66.20;100764.94;10434898;28;20233;-75
2021/06/15 03:50:34;;;;;;;25.77;15.65;;;;;;;16.54;65.84;100770.91;10434785;28;20244;-76
2021/06/15 03:55:38;;;;;;;28.58;15.40;;;;;;;16.68;65.72;100769.53;10437221;28;20610;-75
2021/06/15 04:00:48;;;;;;;22.45;13.85;;;;;;;16.73;65.54;100762.63;10435835;28;20916;-76
2021/06/15 04:05:54;;;;;;;24.67;14.57;;;;;;;16.79;65.50;100781.00;10412758;28;20291;-75
2021/06/15 04:10:59;;;;;;;24.80;13.60;;;;;;;16.81;65.17;100791.66;10432777;28;20224;-74
2021/06/15 04:16:04;;;;;;;19.17;13.23;;;;;;;16.83;65.03;100789.66;10395120;28;20254;-74
2021/06/15 04:21:10;;;;;;;23.35;13.77;;;;;;;16.75;65.29;100789.56;10352326;28;20715;-74
2021/06/15 04:26:13;;;;;;;20.58;13.32;;;;;;;16.77;64.78;100801.97;10352125;28;21002;-74
2021/06/15 04:31:19;;;;;;;18.20;12.10;;;;;;;16.81;64.65;100794.38;10352158;28;20233;-74
2021/06/15 04:36:28;;;;;;;24.33;13.75;;;;;;;16.83;64.31;100789.66;10350150;28;20272;-75
2021/06/15 04:41:36;;;;;;;20.67;14.27;;;;;;;16.89;64.64;100793.59;10354517;28;20608;-74
2021/06/15 04:46:44;;;;;;;22.40;13.25;;;;;;;16.96;64.28;100800.97;10367949;28;20226;-74
2021/06/15 04:51:50;;;;;;;20.85;13.20;;;;;;;17.01;64.05;100798.66;10353868;28;20249;-74
2021/06/15 04:56:56;;;;;;;22.20;11.90;;;;;;;17.07;63.29;100813.44;10352755;28;20245;-74
2021/06/15 05:01:59;;;;;;;21.98;11.20;;;;;;;17.10;62.65;100813.13;10350233;28;20805;-74
2021/06/15 05:07:04;;;;;;;17.25;10.57;;;;;;;17.18;62.68;100821.38;10352082;28;20230;-74
2021/06/15 05:12:10;;;;;;;18.60;10.80;;;;;;;17.22;62.24;100828.22;10352071;28;20239;-73
2021/06/15 05:17:15;;;;;;;19.95;11.07;;;;;;;17.25;62.03;100837.88;10349748;28;20226;-74
2021/06/15 05:22:25;;;;;;;12.93;7.72;;;;;;;17.36;62.35;100834.94;10351691;28;20245;-74
2021/06/15 05:27:30;;;;;;;15.57;6.55;;;;;;;17.46;62.11;100841.09;10350681;28;20237;-74
2021/06/15 05:32:33;;;;;;;16.63;10.82;;;;;;;17.46;61.71;100841.09;10351698;28;20242;-74
2021/06/15 05:37:38;;;;;;;21.83;10.80;;;;;;;17.51;61.93;100842.50;10350061;28;20234;-73
2021/06/15 05:42:42;;;;;;;19.17;11.02;;;;;;;17.73;61.45;100849.28;10350678;28;20609;-74
2021/06/15 05:47:45;;;;;;;17.92;11.05;;;;;;;17.85;60.91;100857.00;10350233;28;20895;-75
2021/06/15 05:52:49;;;;;;;19.52;10.93;;;;;;;17.96;60.43;100860.44;10352137;28;20353;-74
2021/06/15 05:57:52;;;;;;;18.63;10.98;;;;;;;18.24;60.19;100851.13;10351498;28;20237;-74
2021/06/15 06:02:55;;;;;;;18.05;11.43;;;;;;;18.51;59.42;100851.88;10350785;28;20248;-74
2021/06/15 06:08:07;;;;;;;15.45;10.48;;;;;;;18.81;58.21;100853.19;10349393;28;20257;-74
2021/06/15 06:13:12;;;;;;;12.43;8.20;;;;;;;18.93;57.84;100856.47;10349822;28;20333;-74
2021/06/15 06:18:15;;;;;;;15.57;8.38;;;;;;;19.11;57.39;100861.75;10355126;28;20244;-74
2021/06/15 06:23:20;;;;;;;14.68;9.05;;;;;;;19.28;56.81;100870.78;10354156;28;20253;-74
2021/06/15 06:28:23;;;;;;;15.73;7.60;;;;;;;19.34;56.59;100881.88;10381397;28;20621;-74
2021/06/15 06:33:27;;;;;;;13.93;8.05;;;;;;;19.53;55.78;100882.50;10404802;28;20229;-74
2021/06/15 06:38:31;;;;;;;11.80;7.15;;;;;;;19.56;55.64;100877.63;10435558;28;20725;-75
2021/06/15 06:43:36;;;;;;;15.93;8.27;;;;;;;19.58;55.21;100877.44;10429246;28;20238;-75
2021/06/15 06:48:39;;;;;;;14.60;8.30;;;;;;;19.62;55.07;100876.94;10396137;28;20237;-75
2021/06/15 06:53:43;;;;;;;10.50;8.63;;;;;;;19.77;55.08;100873.50;10395207;28;20237;-75
2021/06/15 06:58:47;;;;;;;12.65;8.48;;;;;;;19.88;54.23;100874.00;10394950;28;20237;-75
2021/06/15 07:03:50;;;;;;;14.23;9.50;;;;;;;19.83;54.07;100881.00;10394782;28;21500;-74
2021/06/15 07:08:54;;;;;;;16.55;10.43;;;;;;;19.77;54.55;100874.34;10393541;28;20630;-74
2021/06/15 07:13:57;;;;;;;12.50;9.00;;;;;;;19.95;54.18;100876.03;10394526;28;20238;-74
2021/06/15 07:19:00;;;;;;;18.77;10.18;;;;;;;20.35;53.41;100877.81;10395816;28;20244;-74
2021/06/15 07:24:05;;;;;;;16.90;9.32;;;;;;;20.51;52.86;100885.91;10392256;28;20237;-73
2021/06/15 07:29:08;;;;;;;14.60;9.60;;;;;;;20.54;52.15;100888.31;10393225;28;20256;-74
2021/06/15 07:34:11;;;;;;;12.00;8.52;;;;;;;20.81;51.73;100896.19;10393066;28;20238;-74
2021/06/15 07:39:16;;;;;;;16.92;10.40;;;;;;;20.93;51.91;100894.75;10393213;28;20239;-73
2021/06/15 07:44:19;;;;;;;13.07;8.75;;;;;;;21.10;50.69;100896.38;10390175;28;20230;-73
2021/06/15 07:49:22;;;;;;;10.38;7.90;;;;;;;21.10;50.70;100899.09;10395681;28;20225;-73
2021/06/15 07:54:27;;;;;;;13.85;9.63;;;;;;;20.96;51.67;100918.97;10392671;28;20237;-73
2021/06/15 07:59:29;;;;;;;14.68;8.23;;;;;;;20.45;52.28;100927.56;10390120;28;20714;-75
2021/06/15 08:04:32;;;;;;;12.23;7.70;;;;;;;20.37;52.74;100932.19;10391048;28;20237;-74
2021/06/15 08:09:37;;;;;;;9.55;7.75;;;;;;;20.37;52.06;100926.75;10394807;28;20714;-74
2021/06/15 08:14:40;;;;;;;8.30;6.13;;;;;;;20.58;51.98;100935.19;10390979;28;20232;-74
2021/06/15 08:19:43;;;;;;;9.98;6.60;;;;;;;21.31;50.01;100938.56;10391224;28;20604;-74
2021/06/15 08:24:47;;;;;;;10.43;6.93;;;;;;;21.68;49.19;100938.63;10390729;28;20237;-74
2021/06/15 08:29:52;;;;;;;9.82;7.05;;;;;;;21.66;48.69;100931.63;10390239;28;20260;-74
2021/06/15 08:34:54;;;;;;;12.77;6.80;;;;;;;21.38;49.35;100934.91;10388672;28;20253;-74
2021/06/15 08:39:59;;;;;;;12.48;7.68;;;;;;;21.53;49.00;100928.66;10390205;28;20238;-74
2021/06/15 08:45:02;;;;;;;13.93;9.00;;;;;;;21.76;49.17;100939.63;10391461;28;20246;-74
2021/06/15 08:50:07;;;;;;;12.07;7.78;;;;;;;21.62;49.23;100939.34;10392393;28;20264;-74
2021/06/15 08:55:12;;;;;;;17.55;9.98;;;;;;;21.94;48.47;100947.47;10389249;28;20237;-74
2021/06/15 09:00:16;;;;;;;14.80;10.07;;;;;;;22.54;47.55;100941.91;10392905;28;21491;-75
2021/06/15 09:05:19;;;;;;;16.13;10.70;;;;;;;22.42;47.31;100935.16;10390471;28;20585;-75
2021/06/15 09:10:28;;;;;;;13.68;7.28;;;;;;;22.72;46.90;100935.16;10389988;28;20222;-75
2021/06/15 09:15:34;;;;;;;7.80;6.90;;;;;;;23.23;45.12;100928.81;10391079;28;21412;-75
2021/06/15 09:20:37;;;;;;;10.75;6.00;;;;;;;23.64;44.60;100929.00;10390662;28;20237;-75
2021/06/15 09:25:49;;;;;;;10.85;5.53;;;;;;;23.76;43.15;100930.22;10391000;28;20234;-75
2021/06/15 09:30:57;;;;;;;9.98;5.80;;;;;;;23.77;44.08;100922.81;10389454;28;20240;-75
2021/06/15 09:36:05;;;;;;;10.27;5.82;;;;;;;24.06;42.94;100925.38;10387425;28;20244;-75
2021/06/15 09:41:36;;;;;;;8.70;6.10;;;;;;;24.82;42.10;100918.19;10388832;28;20234;-74
2021/06/15 09:46:43;;;;;;;11.32;5.63;;;;;;;26.31;39.74;100906.94;10389233;28;20660;-73
2021/06/15 09:51:46;;;;;;;7.28;4.93;;;;;;;26.89;38.13;100906.09;10390642;28;20237;-75
2021/06/15 09:56:58;;;;;;;6.72;3.95;;;;;;;27.29;36.64;100911.38;10389950;28;20241;-75
2021/06/15 10:02:01;;;;;;;6.93;4.18;;;;;;;25.77;39.21;100919.91;10390584;28;20234;-75
2021/06/15 10:07:04;;;;;;;10.07;4.75;;;;;;;25.67;40.04;100925.00;10387208;28;20320;-75
2021/06/15 10:12:09;;;;;;;7.03;4.20;;;;;;;26.57;38.53;100913.44;10387139;28;20291;-75
2021/06/15 10:17:12;;;;;;;6.57;3.95;;;;;;;27.06;37.02;100912.78;10389892;28;20653;-74
2021/06/15 10:22:16;;;;;;;6.13;4.00;;;;;;;26.46;37.62;100909.44;10387024;28;21443;-74
2021/06/15 10:27:20;;;;;;;8.05;4.30;;;;;;;25.79;38.62;100917.78;10388670;28;20257;-73
2021/06/15 10:32:26;;;;;;;7.55;4.72;;;;;;;26.10;38.74;100916.28;10388893;28;20856;-75
2021/06/15 10:37:47;;;;;;;6.80;4.45;;;;;;;26.17;38.50;100906.09;10385936;28;21424;-76
2021/06/15 10:48:45;;;;;;;7.40;4.75;;;;;;;26.84;38.05;100908.69;8939285;32;20570;-75
2021/06/15 10:53:49;;;;;;;6.05;4.75;;;;;;;26.49;37.63;100904.34;10427591;28;20286;-75
2021/06/15 10:59:10;;;;;;;6.93;5.18;;;;;;;25.58;38.33;100907.81;10423211;28;20713;-75
2021/06/15 11:04:15;;;;;;;8.30;4.90;;;;;;;26.74;37.65;100904.47;10419477;28;20240;-75
2021/06/15 11:09:24;;;;;;;8.10;4.90;;;;;;;26.98;37.14;100906.69;10418400;28;20308;-75
2021/06/15 11:14:28;;;;;;;5.13;4.45;;;;;;;27.06;35.51;100899.00;10419392;28;20237;-75
2021/06/15 11:19:35;;;;;;;7.40;4.40;;;;;;;27.50;35.92;100905.53;10418998;28;21435;-75
2021/06/15 11:24:48;;;;;;;4.35;3.97;;;;;;;25.47;37.06;100907.59;10418605;28;20236;-75
2021/06/15 11:29:52;;;;;;;6.25;4.43;;;;;;;24.44;40.92;100900.31;10326657;28;20242;-75
2021/06/15 11:35:19;;;;;;;7.75;5.03;;;;;;;26.49;35.75;100895.22;10301852;28;20737;-75
2021/06/15 11:40:30;;;;;;;4.15;3.83;;;;;;;27.96;33.67;100881.34;10288652;28;20221;-76
2021/06/15 11:45:35;;;;;;;6.75;3.95;;;;;;;28.42;30.93;100889.16;10287588;28;20237;-75
2021/06/15 11:50:41;;;;;;;5.70;3.67;;;;;;;27.79;31.44;100889.38;10298353;28;20722;-74
2021/06/15 11:55:46;;;;;;;3.58;2.90;;;;;;;28.81;30.78;100886.13;10293176;28;20252;-76
2021/06/15 12:00:51;;;;;;;7.18;3.85;;;;;;;27.97;29.89;100874.78;10297341;28;20239;-76
2021/06/15 12:05:57;;;;;;;4.05;2.88;;;;;;;28.13;30.91;100870.56;10328764;28;21417;-76
2021/06/15 12:11:01;;;;;;;5.18;2.67;;;;;;;28.67;28.07;100868.88;10320233;28;20664;-75
2021/06/15 12:16:09;;;;;;;6.25;3.47;;;;;;;29.77;28.45;100868.47;10325109;28;20259;-75
2021/06/15 12:21:17;;;;;;;6.18;3.03;;;;;;;29.58;27.43;100876.03;10321541;28;20260;-75
2021/06/15 12:26:23;;;;;;;4.95;2.75;;;;;;;29.03;28.54;100869.88;10328623;28;20258;-75
2021/06/15 12:31:28;;;;;;;6.80;2.80;;;;;;;28.75;28.17;100865.81;10321569;28;20314;-75
2021/06/15 12:36:35;;;;;;;3.53;2.45;;;;;;;29.43;27.85;100863.72;10325238;28;20790;-75
2021/06/15 12:41:40;;;;;;;5.50;2.28;;;;;;;28.08;26.64;100857.44;10323555;28;20236;-75
2021/06/15 12:46:44;;;;;;;4.25;1.77;;;;;;;28.40;27.10;100857.31;10320537;28;20636;-75
2021/06/15 12:51:50;;;;;;;2.67;1.63;;;;;;;30.13;26.12;100854.66;10317871;28;20239;-75
2021/06/15 12:56:58;;;;;;;4.20;1.90;;;;;;;30.71;24.75;100845.34;10322516;28;21452;-76
2021/06/15 13:02:11;;;;;;;3.88;1.60;;;;;;;30.90;23.88;100855.13;10319324;28;20238;-76
2021/06/15 13:07:16;;;;;;;1.70;1.33;;;;;;;31.32;25.05;100853.97;10314095;28;20246;-76
2021/06/15 13:12:21;;;;;;;3.38;1.58;;;;;;;31.42;24.92;100851.34;10318024;28;20244;-76
2021/06/15 13:17:26;;;;;;;1.92;1.52;;;;;;;30.90;25.78;100848.75;10331959;28;20241;-77
2021/06/15 13:22:51;;;;;;;2.83;1.40;;;;;;;29.44;27.37;100843.28;10315944;28;20325;-75
2021/06/15 13:27:58;;;;;;;3.65;1.75;;;;;;;29.08;27.38;100834.09;10319668;28;20314;-73
2021/06/15 13:33:05;;;;;;;2.55;1.60;;;;;;;30.79;26.06;100827.47;10341331;28;20236;-74
2021/06/15 13:38:16;;;;;;;2.25;1.30;;;;;;;31.27;25.80;100829.75;10343551;28;20248;-75
2021/06/15 13:43:25;;;;;;;4.75;1.83;;;;;;;31.41;24.66;100824.72;10343921;28;20243;-74
2021/06/15 13:48:28;;;;;;;2.75;1.50;;;;;;;30.06;25.35;100828.97;10343084;28;20266;-75
2021/06/15 13:53:32;;;;;;;4.25;1.52;;;;;;;30.65;26.25;100824.16;10350457;28;20810;-76
2021/06/15 13:58:36;;;;;;;3.92;1.50;;;;;;;30.32;26.39;100828.47;10354660;28;20334;-75
2021/06/15 14:03:39;;;;;;;3.38;1.40;;;;;;;30.90;23.89;100816.31;10359012;28;20708;-75
2021/06/15 14:08:43;;;;;;;2.05;1.50;;;;;;;29.67;26.52;100821.19;10352888;28;20243;-75
2021/06/15 14:13:46;;;;;;;3.78;1.50;;;;;;;31.20;24.81;100826.28;10347491;28;20246;-75
2021/06/15 14:18:49;;;;;;;2.58;1.67;;;;;;;32.06;25.10;100817.63;10352328;28;20313;-75
2021/06/15 14:23:53;;;;;;;3.30;1.80;;;;;;;32.27;23.95;100813.19;10354302;28;20620;-75
2021/06/15 14:28:56;;;;;;;1.67;1.45;;;;;;;32.24;24.03;100810.94;10348609;28;20262;-75
2021/06/15 14:33:59;;;;;;;2.28;1.40;;;;;;;29.68;25.50;100810.97;10344424;28;20249;-74
2021/06/15 14:39:04;;;;;;;2.92;1.52;;;;;;;29.13;26.22;100807.41;10343097;28;20236;-75
2021/06/15 14:44:07;;;;;;;2.03;1.30;;;;;;;30.23;24.30;100800.31;10325031;28;20242;-74
2021/06/15 14:49:10;;;;;;;2.20;1.70;;;;;;;30.26;25.77;100790.66;10342903;28;20234;-77
2021/06/15 14:54:14;;;;;;;2.92;1.48;;;;;;;30.66;24.85;100789.78;10346245;28;20951;-74
2021/06/15 14:59:17;;;;;;;2.13;1.52;;;;;;;30.23;25.59;100782.84;10352224;28;20598;-75
2021/06/15 15:04:21;;;;;;;2.47;1.70;;;;;;;29.59;27.13;100786.41;10353100;28;20239;-76
2021/06/15 15:09:26;;;;;;;2.75;1.70;;;;;;;30.56;24.77;100771.03;10344068;28;20265;-75
2021/06/15 15:14:29;;;;;;;2.72;1.77;;;;;;;31.45;25.21;100775.91;10354828;28;20258;-74
2021/06/15 15:19:32;;;;;;;3.60;1.75;;;;;;;32.10;24.79;100770.72;10352621;28;20623;-74
2021/06/15 15:24:37;;;;;;;2.67;1.83;;;;;;;31.90;24.43;100772.16;10344828;28;20250;-74
2021/06/15 15:29:40;;;;;;;2.88;1.73;;;;;;;31.45;25.15;100767.59;10315892;28;20240;-74
2021/06/15 15:34:43;;;;;;;2.47;1.90;;;;;;;31.20;24.30;100758.88;10321650;28;20247;-74
2021/06/15 15:39:49;;;;;;;3.90;1.67;;;;;;;30.77;25.04;100761.16;10310486;28;20240;-73
2021/06/15 15:44:52;;;;;;;3.47;1.67;;;;;;;28.63;27.88;100759.88;10312842;28;20656;-74
2021/06/15 15:49:55;;;;;;;3.95;1.83;;;;;;;30.26;26.04;100746.34;10309438;28;20591;-74
2021/06/15 15:55:00;;;;;;;2.25;1.60;;;;;;;29.90;27.16;100740.03;10307977;28;20649;-75
2021/06/15 16:00:05;;;;;;;1.80;1.70;;;;;;;31.20;25.32;100742.22;10307513;28;20660;-74
2021/06/15 16:05:14;;;;;;;2.25;1.60;;;;;;;31.78;24.03;100741.69;10326648;28;20644;-74
2021/06/15 16:10:20;;;;;;;4.93;1.83;;;;;;;30.72;24.68;100729.75;10358483;28;20238;-74
2021/06/15 16:15:23;;;;;;;3.15;1.60;;;;;;;30.43;24.54;100726.97;10366921;28;20289;-74
2021/06/15 16:20:26;;;;;;;2.83;1.58;;;;;;;29.40;25.90;100731.41;10370632;28;20239;-74
2021/06/15 16:25:31;;;;;;;7.47;2.20;;;;;;;29.85;25.83;100723.31;10365951;28;20253;-74
2021/06/15 16:30:34;;;;;;;3.92;1.70;;;;;;;32.32;24.11;100723.50;10352133;28;20240;-74
2021/06/15 16:35:37;;;;;;;2.95;1.70;;;;;;;33.87;23.01;100730.88;10328974;28;20232;-74
2021/06/15 16:40:41;;;;;;;3.22;1.90;;;;;;;34.08;22.30;100728.97;10350477;28;20239;-73
2021/06/15 16:45:45;;;;;;;6.55;1.90;;;;;;;35.81;20.39;100724.56;10345606;28;20243;-73
2021/06/15 16:50:48;;;;;;;2.42;1.60;;;;;;;37.09;19.93;100720.16;10347976;28;20235;-73
2021/06/15 16:55:52;;;;;;;3.35;1.75;;;;;;;38.26;18.81;100727.22;10348205;28;20595;-74
2021/06/15 17:00:55;;;;;;;4.30;1.70;;;;;;;38.55;17.97;100729.88;10350463;28;20231;-74
2021/06/15 17:05:58;;;;;;;1.50;1.40;;;;;;;37.69;19.36;100729.06;10348056;28;20785;-73
2021/06/15 17:11:03;;;;;;;2.70;1.80;;;;;;;36.73;19.64;100731.63;10349359;28;20235;-73
2021/06/15 17:16:06;;;;;;;5.80;1.75;;;;;;;37.31;19.69;100717.69;10346539;28;20253;-73
2021/06/15 17:21:11;;;;;;;5.18;1.40;;;;;;;37.18;19.49;100719.19;10346254;28;20256;-73
2021/06/15 17:26:15;;;;;;;6.82;1.40;;;;;;;36.59;19.75;100718.31;10344279;28;20259;-74
2021/06/15 17:31:18;;;;;;;3.97;1.45;;;;;;;34.38;21.04;100719.88;10346399;28;20260;-73
2021/06/15 17:36:21;;;;;;;2.75;1.42;;;;;;;33.07;22.18;100716.97;10342172;28;20646;-74
2021/06/15 17:41:26;;;;;;;3.53;1.80;;;;;;;33.21;22.60;100711.78;10346531;28;20259;-73
2021/06/15 17:46:29;;;;;;;4.07;1.73;;;;;;;31.85;23.26;100713.75;10344046;28;20248;-74
2021/06/15 17:51:32;;;;;;;5.50;1.70;;;;;;;29.55;26.54;100706.84;10345038;28;20268;-73
2021/06/15 17:56:38;;;;;;;2.83;1.60;;;;;;;28.00;27.91;100706.78;10346318;28;20280;-74
2021/06/15 18:01:41;;;;;;;2.67;1.60;;;;;;;26.66;29.38;100706.34;10348232;28;20232;-73
2021/06/15 18:06:46;;;;;;;4.13;1.90;;;;;;;25.53;31.26;100698.56;10353520;28;20255;-73
2021/06/15 18:11:50;;;;;;;2.22;1.70;;;;;;;24.79;33.06;100713.41;10342619;28;20250;-73
2021/06/15 18:16:54;;;;;;;2.75;1.60;;;;;;;24.24;33.82;100707.19;10346520;28;20254;-74
2021/06/15 18:21:58;;;;;;;3.08;1.95;;;;;;;24.08;34.29;100709.25;10323265;28;20247;-73
2021/06/15 18:27:03;;;;;;;3.35;1.73;;;;;;;23.86;34.32;100700.31;10342585;28;21526;-74
2021/06/15 18:32:07;;;;;;;4.03;2.10;;;;;;;23.77;34.96;100701.50;10346460;28;20240;-73
2021/06/15 18:37:10;;;;;;;3.15;2.00;;;;;;;23.60;35.42;100692.75;10345891;28;20376;-73
2021/06/15 18:42:14;;;;;;;2.83;1.95;;;;;;;23.43;36.13;100703.22;10346458;28;20244;-74
2021/06/15 18:47:17;;;;;;;4.35;2.05;;;;;;;23.26;36.10;100695.50;10344351;28;20266;-73
2021/06/15 18:52:21;;;;;;;5.30;2.22;;;;;;;22.99;36.60;100695.28;10345922;28;20628;-74
2021/06/15 18:57:26;;;;;;;4.32;2.00;;;;;;;22.80;37.72;100702.28;10343747;28;20244;-73
2021/06/15 19:02:29;;;;;;;5.15;2.30;;;;;;;22.50;37.77;100707.06;10342224;28;20228;-73
2021/06/15 19:07:34;;;;;;;3.20;2.20;;;;;;;22.24;38.37;100702.97;10342423;28;20351;-74
2021/06/15 19:12:39;;;;;;;5.18;2.28;;;;;;;21.91;39.62;100698.97;10356169;28;20251;-73
2021/06/15 19:17:42;;;;;;;5.00;1.85;;;;;;;21.75;40.42;100695.44;10350673;28;20358;-73
2021/06/15 19:22:45;;;;;;;2.63;2.15;;;;;;;21.59;40.83;100701.09;10351356;28;20994;-73
2021/06/15 19:27:49;;;;;;;3.47;1.90;;;;;;;21.42;41.88;100697.69;10349984;28;20709;-73
2021/06/15 19:32:53;;;;;;;4.30;2.03;;;;;;;21.10;42.40;100709.81;10354318;28;20614;-73
2021/06/15 19:37:56;;;;;;;3.75;1.90;;;;;;;20.74;43.08;100705.81;10359236;28;20621;-73
2021/06/15 19:43:00;;;;;;;2.85;2.10;;;;;;;20.52;43.30;100714.88;10361089;28;20761;-74
2021/06/15 19:48:05;;;;;;;6.32;2.53;;;;;;;20.56;43.12;100708.00;10310785;28;20303;-74
2021/06/15 19:53:08;;;;;;;2.75;2.00;;;;;;;20.48;43.40;100728.00;10309712;28;21404;-74
2021/06/15 19:58:13;;;;;;;7.32;2.63;;;;;;;20.51;43.44;100729.53;10309219;28;20255;-73
2021/06/15 20:03:15;;;;;;;7.03;2.30;;;;;;;20.40;43.62;100732.69;10320227;28;21381;-73
2021/06/15 20:08:19;;;;;;;4.05;2.53;;;;;;;20.24;43.81;100736.31;10309577;28;20314;-75
2021/06/15 20:13:23;;;;;;;3.33;2.33;;;;;;;20.12;44.28;100741.34;10312269;28;20240;-75
2021/06/15 20:18:27;;;;;;;4.78;2.30;;;;;;;19.97;44.79;100735.78;10317460;28;20241;-77
2021/06/15 20:23:30;;;;;;;4.50;2.20;;;;;;;19.85;45.43;100734.47;10327787;28;20236;-77
2021/06/15 20:28:34;;;;;;;3.47;2.40;;;;;;;19.79;46.03;100736.03;10317429;28;20237;-77
2021/06/15 20:33:37;;;;;;;4.55;2.30;;;;;;;19.55;46.31;100742.38;10319958;28;20240;-77
2021/06/15 20:38:40;;;;;;;4.88;2.35;;;;;;;19.41;45.98;100732.19;10317742;28;20243;-77
2021/06/15 20:43:45;;;;;;;8.00;2.45;;;;;;;19.38;45.53;100729.81;10318494;28;20322;-76
2021/06/15 20:48:47;;;;;;;3.30;2.17;;;;;;;19.29;45.54;100734.44;10320962;28;20630;-76
2021/06/15 20:53:51;;;;;;;3.88;2.15;;;;;;;19.24;45.92;100734.09;10355741;28;20236;-76
2021/06/15 20:58:56;;;;;;;3.22;2.20;;;;;;;19.15;47.54;100744.16;10360065;28;20569;-76
2021/06/15 21:03:59;;;;;;;2.67;2.03;;;;;;;19.05;48.39;100743.50;10359675;28;20616;-76
2021/06/15 21:09:03;;;;;;;4.68;2.20;;;;;;;18.91;47.52;100738.72;10348187;28;20251;-74
2021/06/15 21:14:08;;;;;;;3.60;1.90;;;;;;;18.74;47.66;100737.84;10355044;28;20252;-75
2021/06/15 21:19:11;;;;;;;8.43;2.30;;;;;;;18.67;48.62;100740.38;10351842;28;20228;-74
2021/06/15 21:24:14;;;;;;;4.88;2.38;;;;;;;18.63;48.10;100744.47;10348685;28;20236;-74
2021/06/15 21:29:18;;;;;;;7.38;2.40;;;;;;;18.56;47.80;100738.00;10354149;28;21406;-74
2021/06/15 21:34:21;;;;;;;5.95;2.75;;;;;;;18.46;47.42;100740.03;10355285;28;20240;-74
2021/06/15 21:39:24;;;;;;;6.45;3.15;;;;;;;18.41;47.60;100737.81;10350565;28;20235;-74
2021/06/15 21:44:28;;;;;;;4.45;2.58;;;;;;;18.40;47.86;100732.53;10345095;28;20708;-75
2021/06/15 21:49:31;;;;;;;6.13;2.40;;;;;;;18.30;47.82;100729.97;10347236;28;20264;-75
2021/06/15 21:54:34;;;;;;;4.00;2.55;;;;;;;18.27;48.57;100727.59;10329443;28;20251;-75
2021/06/15 21:59:38;;;;;;;4.07;2.50;;;;;;;18.10;49.14;100732.09;10345428;28;21519;-75
2021/06/15 22:04:41;;;;;;;4.43;2.30;;;;;;;17.97;49.75;100731.72;10346381;28;20232;-75
2021/06/15 22:09:44;;;;;;;5.97;2.50;;;;;;;17.93;49.98;100726.59;10331508;28;20247;-76
2021/06/15 22:14:49;;;;;;;5.38;2.40;;;;;;;17.77;50.10;100729.25;10353995;28;20280;-75
2021/06/15 22:19:52;;;;;;;6.93;2.70;;;;;;;17.66;50.03;100724.97;10355532;28;20228;-75
2021/06/15 22:24:55;;;;;;;3.22;2.28;;;;;;;17.69;50.03;100719.22;10356212;28;20235;-76
2021/06/15 22:29:59;;;;;;;7.72;2.50;;;;;;;17.62;49.69;100717.28;10354624;28;21504;-76
2021/06/15 22:35:02;;;;;;;6.85;2.50;;;;;;;17.55;50.20;100714.41;10348673;28;20237;-76
2021/06/15 22:40:07;;;;;;;4.35;2.30;;;;;;;17.57;50.09;100720.50;10347841;28;20253;-76
2021/06/15 22:45:14;;;;;;;3.47;2.20;;;;;;;17.43;50.20;100715.66;10350484;28;20247;-76
2021/06/15 22:50:19;;;;;;;4.40;2.80;;;;;;;17.32;50.70;100714.06;10355623;28;20242;-75
2021/06/15 22:55:23;;;;;;;4.70;2.45;;;;;;;17.15;51.86;100723.97;10348747;28;20255;-75
2021/06/15 23:00:29;;;;;;;12.27;2.90;;;;;;;17.01;52.09;100709.09;10347591;28;20748;-77
2021/06/15 23:05:33;;;;;;;4.93;2.28;;;;;;;17.01;52.35;100705.53;10345270;28;20240;-76
2021/06/15 23:10:37;;;;;;;6.95;2.97;;;;;;;16.97;52.50;100699.56;10343533;28;20236;-77
2021/06/15 23:15:41;;;;;;;4.70;2.55;;;;;;;16.90;52.26;100697.66;10344205;28;20236;-77
2021/06/15 23:20:44;;;;;;;8.40;2.78;;;;;;;16.83;52.94;100691.16;10342809;28;20232;-76